Hlavní strana
METAR-TAF:

METAR-TAF

Letiště :

Mezinárodní letiště Čchung-čching Ťiang-pej

Čchung-čching, Čína

zeměpisná šířka: 29-31N, zeměpisná délka: 106-29E, výška: 351 m

Aktuální stav počasí

Zpráva byla vytvořena před 22 minutami, v 22:00 UTC
Severoseverovýchodní vítr 4 kt
Teplota 7°C
Vlhkost vzduchu 87%
Tlak 1029 hPa
Viditelnost: 7000 m

METAR: ZUCK 132200Z 02002MPS 7000 NSC 07/05 Q1029 NOSIG

Čas: 06:22 (22:22 UTC)

Předpověď počasí

Zpráva byla vytvořena před 7 hodinami a 17 minutami, v 15:05 UTC
Předpověď platná od 13 v 18 UTC do 14 v 18 UTC
Severoseverovýchodní vítr 6 kt
Viditelnost: 6000 m
Polojasno ve výšce 4000 ft

TAF: ZUCK 131505Z 1318/1418 03003MPS 6000 SCT040 TX09/1408Z TN06/1322Z

Stav a předpovědi počasí z více než 4 000 letišť (zprávy METAR a TAF).

Červené a žluté tečky na mapě představují dostupné meteorologické stanice.

Když kurzor umístíte na tečku, zobrazí se název stanice.

Pak kliknutím zobrazíte stav a předpověď počasí.

Chcete-li změnit mapu, kliknutím na zelené tlačítko se znaménkem +mapu přiblížíte, kliknutím na zelené tlačítko se znaménkem – mapu oddálíte a kliknutím na zelené šipky přejdete na sousední mapy.


METAR-TAF: